Het weer levert geen direct gevaar op.    Er zijn geen waarschuwingen afgegeven.


Onweer radar Meer informatie blitzortung!


Regen radar Meer informatie rain snow radar


Bezoek onze andere website:

Template documentation
and downloads

And another site

Forum Leuven-template

EUWEATHER.EU

Verwachtingen Meteociel


U vindt ons ook hier:

Het Weer Aktueel

UK Metoffice

European Weather Network

WeatherCloud

Weather Underground

Benelux Weer Netwerk

AWEKAS

WeatherlinkIP

HAMweather, WeatherForYou, PWS Weather

Wetterpage 24

Wetter.com



METAR rapporten vliegvelden

   
EBAW - Antwerp
Gewijzigd: 18-06-2019 11:20
Helder  
Helder  
   Wind: varieert 3.7 km/h
Wind: varieert 3.7 km/h
Temperatuur: 24°C
Dauwpunt: 15°C
Vochtigheid: 57%
Barometer: 1015 hPa
Zicht: meer dan 10 km
Bewolking: Helder
EBAW 180920Z VRB02KT CAVOK 24/15 Q1015 NOSIG
EBLG - Li├Ęge
Gewijzigd: 18-06-2019 11:20
Helder  
Helder  
   Wind: NNO 9.3 km/h
Wind: NNO 9.3 km/h
Temperatuur: 23°C
Dauwpunt: 15°C
Vochtigheid: 61%
Barometer: 1015 hPa
Zicht: meer dan 10 km
Bewolking: Helder
EBLG 180920Z 02005KT 340V060 CAVOK 23/15 Q1015 NOSIG
EBCV - Mons/Bergen
Gewijzigd: 18-06-2019 11:25
Helder  
Helder  
   Wind: ONO 5.6 km/h
Wind: ONO 5.6 km/h
Barometer: 1015 hPa
Bewolking: Helder
Bewolking: Helder
EBCV 180925Z AUTO 06003KT //// NCD ///// Q1015
EHBK - Maastricht
Gewijzigd: 18-06-2019 11:25
Gedeeltelijk bewolkt  
Gedeeltelijk bewolkt  
   Wind: NW 5.6 km/h
Wind: NW 5.6 km/h
Temperatuur: 25°C
Dauwpunt: 15°C
Vochtigheid: 54%
Barometer: 1015 hPa
Bewolking: Gedeeltelijk bewolkt
Zicht: meer dan 10 km
Bewolking: Gedeeltelijk bewolkt
EHBK 180925Z AUTO 32003KT 270V010 9999 NSC 25/15 Q1015 NOSIG
ELLX - Luxemburg
Gewijzigd: 18-06-2019 11:20
Helder  
Helder  
   Wind: Oosten 7.4 km/h
Wind: Oosten 7.4 km/h
Temperatuur: 22°C
Dauwpunt: 15°C
Vochtigheid: 65%
Barometer: 1015 hPa
Zicht: meer dan 10 km
Bewolking: Helder
ELLX 180920Z 09004KT CAVOK 22/15 Q1015 NOSIG
EBOS - Oostende
Gewijzigd: 18-06-2019 11:20
Helder  
Helder  
   Wind: NNW 9.3 km/h
Wind: NNW 9.3 km/h
Temperatuur: 19°C
Dauwpunt: 13°C
Vochtigheid: 68%
Barometer: 1015 hPa
Zicht: meer dan 10 km
Bewolking: Helder
EBOS 180920Z 34005KT 300V020 CAVOK 19/13 Q1015 NOSIG

Script ontwikkeld door  Saratoga-weather.org Aangepast voor de template door  Weerstation Leuven

Apparatuur in gebruik:

Weerstation
Davis VP2

Weerprogramma
Meteobridge

Weercomputer
Asus WL -330N3G

Webleverancier
Onecom

Davis VP2

Meteobridge

Asus WL -330N3G

Onecom